Bonheiden, Belgium
Current Conditions -  °F | °C
As of 6:20 PM on Wednesday 26 Nov 2014 (Local Time) from EBBR Reporting Station
Haze Haze  
Wind Chill: 42°   Ceiling: 400
Heat Index: 45°   Visibility: 1.3mi
Dew Point: 43°   Wind: 5mph
Humidity: 93%   Direction: 120°ESE
Pressure: 29.85"   Gusts: NA
Location:  51.02°N, 4.55°E
Report Text: EBBR 261720Z 12004KT 2200 BR BKN004 07/06 Q1011 NOSIG
Loading
Personal Weather Stations






























Interactive Weather Map New forecast layout! Learn more

10-Day Weather Forecast

Advertisements
Track Severe Weather on mobile